Time;durP1;ratioP1;P1;durP2;ratioP2;P2;SDS_P1;SDS_P2;PMS_P1;PMS_P2;Temp;Humidity;BMP_temperature;BMP_pressure;BME280_temperature;BME280_humidity;BME280_pressure;Samples;Min_cycle;Max_cycle;Signal;HPM_P1;HPM_P2
2022/05/31 00:01:27;;;;;;;22.70;12.23;;;;;;;20.97;71.31;100528.94;4999236;28;20026;-84
2022/05/31 00:03:53;;;;;;;15.85;11.05;;;;;;;21.03;71.67;100550.03;4981162;28;20027;-84
2022/05/31 00:06:18;;;;;;;17.25;10.95;;;;;;;20.95;71.39;100541.94;5000349;28;20037;-85
2022/05/31 00:08:44;;;;;;;19.55;10.55;;;;;;;20.99;71.30;100554.19;5000672;28;20064;-86
2022/05/31 00:11:09;;;;;;;21.63;10.45;;;;;;;21.02;71.42;100559.28;4994911;28;20042;-85
2022/05/31 00:13:35;;;;;;;13.30;10.07;;;;;;;20.98;70.89;100563.44;4994614;28;20053;-89
2022/05/31 00:16:00;;;;;;;19.75;9.75;;;;;;;20.91;71.11;100557.06;4977129;28;20472;-85
2022/05/31 00:18:26;;;;;;;17.15;10.07;;;;;;;20.92;71.25;100559.59;4994913;28;20026;-84
2022/05/31 00:20:51;;;;;;;16.55;9.85;;;;;;;20.95;71.17;100552.88;4994539;28;20413;-83
2022/05/31 00:23:18;;;;;;;15.95;8.90;;;;;;;20.91;70.92;100549.72;4994379;28;20030;-84
2022/05/31 00:25:43;;;;;;;13.23;8.63;;;;;;;20.97;71.08;100564.50;4994573;28;20107;-84
2022/05/31 00:28:09;;;;;;;12.77;9.27;;;;;;;20.96;71.01;100566.38;4995347;28;20066;-84
2022/05/31 00:30:36;;;;;;;13.00;8.40;;;;;;;21.02;70.52;100570.22;4997351;28;20026;-83
2022/05/31 00:33:02;;;;;;;11.80;8.02;;;;;;;21.01;70.19;100568.50;5000552;28;20519;-83
2022/05/31 00:35:32;;;;;;;12.93;9.05;;;;;;;21.01;69.94;100546.63;4996190;28;20026;-84
2022/05/31 00:37:59;;;;;;;14.73;8.55;;;;;;;21.06;69.68;100545.03;4996160;28;20110;-84
2022/05/31 00:40:27;;;;;;;11.60;8.02;;;;;;;21.09;69.54;100544.69;4994855;28;20496;-84
2022/05/31 00:42:57;;;;;;;15.48;8.48;;;;;;;21.15;69.47;100546.63;4994338;28;20077;-84
2022/05/31 00:45:29;;;;;;;20.08;8.55;;;;;;;21.10;69.67;100548.22;4995029;28;20026;-84
2022/05/31 00:47:55;;;;;;;11.25;8.20;;;;;;;21.12;69.69;100551.66;4995607;28;20105;-85
2022/05/31 00:50:58;;;;;;;14.48;7.88;;;;;;;21.10;69.84;100557.28;4994822;28;20054;-84
2022/05/31 00:53:28;;;;;;;15.98;9.25;;;;;;;21.05;69.91;100548.81;4987999;28;20069;-85
2022/05/31 00:55:58;;;;;;;10.13;7.85;;;;;;;21.12;69.62;100562.59;4994475;28;20084;-84
2022/05/31 00:58:27;;;;;;;15.95;7.30;;;;;;;21.12;69.28;100566.16;4994708;28;20046;-84
2022/05/31 01:00:53;;;;;;;16.52;8.40;;;;;;;21.01;69.17;100552.09;4995415;28;20088;-85
2022/05/31 01:03:22;;;;;;;14.57;8.50;;;;;;;21.11;69.15;100569.94;4995025;28;20086;-84
2022/05/31 01:05:49;;;;;;;17.30;9.68;;;;;;;21.09;69.35;100576.66;4995788;28;20519;-84
2022/05/31 01:08:14;;;;;;;15.95;8.77;;;;;;;21.03;69.45;100571.91;4994899;28;20022;-85
2022/05/31 01:10:42;;;;;;;15.63;9.50;;;;;;;20.96;69.66;100573.72;4994997;28;20041;-83
2022/05/31 01:13:09;;;;;;;22.25;9.52;;;;;;;20.84;70.16;100551.50;4996637;28;20423;-85
2022/05/31 01:15:35;;;;;;;17.05;10.68;;;;;;;20.81;70.35;100556.50;4997604;28;20022;-85
2022/05/31 01:18:01;;;;;;;21.23;9.93;;;;;;;20.91;70.43;100570.72;4979745;28;20476;-84
2022/05/31 01:20:27;;;;;;;17.67;10.52;;;;;;;20.80;70.48;100561.13;4995304;28;20045;-84
2022/05/31 01:22:59;;;;;;;16.30;10.38;;;;;;;20.89;70.71;100570.91;4994220;28;20088;-84
2022/05/31 01:26:03;;;;;;;12.82;9.40;;;;;;;20.91;70.52;100578.94;4994306;28;20022;-85
2022/05/31 01:28:29;;;;;;;12.23;8.75;;;;;;;20.90;70.37;100575.34;4994879;28;20077;-84
2022/05/31 01:31:24;;;;;;;13.63;9.18;;;;;;;20.90;70.22;100577.22;4993985;28;20038;-85
2022/05/31 01:34:02;;;;;;;13.25;8.23;;;;;;;20.87;69.96;100572.16;4958142;28;20043;-84
2022/05/31 01:36:36;;;;;;;16.70;8.38;;;;;;;20.92;70.26;100580.59;4994323;28;20033;-85
2022/05/31 01:39:05;;;;;;;17.88;9.32;;;;;;;20.92;69.95;100580.59;4995557;28;20104;-85
2022/05/31 01:41:44;;;;;;;24.83;8.88;;;;;;;20.80;70.06;100563.88;4997679;28;20026;-85
2022/05/31 01:44:13;;;;;;;16.13;7.95;;;;;;;20.89;70.09;100576.38;4997647;28;20084;-85
2022/05/31 01:46:41;;;;;;;15.07;7.97;;;;;;;20.89;70.06;100576.38;4997068;28;20033;-84
2022/05/31 01:49:10;;;;;;;16.15;7.82;;;;;;;20.86;70.27;100575.91;4979972;28;20035;-85
2022/05/31 01:51:37;;;;;;;13.80;9.00;;;;;;;20.83;70.53;100566.22;4997185;28;20033;-85
2022/05/31 01:54:03;;;;;;;30.02;9.68;;;;;;;20.85;70.46;100558.69;4997445;28;20029;-85
2022/05/31 01:56:30;;;;;;;17.88;8.73;;;;;;;20.79;70.75;100570.41;4979787;28;20026;-85
2022/05/31 01:58:57;;;;;;;28.90;9.15;;;;;;;20.68;70.83;100564.53;4997313;28;20022;-84
2022/05/31 02:01:23;;;;;;;16.23;8.48;;;;;;;20.76;70.80;100583.59;4998134;28;20019;-84
2022/05/31 02:03:48;;;;;;;16.13;9.45;;;;;;;20.74;71.12;100582.91;5001646;28;20065;-85
2022/05/31 02:06:38;;;;;;;16.77;10.63;;;;;;;20.80;71.29;100587.63;4997878;28;20018;-85
2022/05/31 02:09:07;;;;;;;17.67;10.50;;;;;;;20.81;71.14;100595.66;4979275;28;20113;-85
2022/05/31 02:11:33;;;;;;;14.85;10.27;;;;;;;20.71;71.49;100594.22;4998362;28;20027;-85
2022/05/31 02:13:58;;;;;;;29.25;15.05;;;;;;;20.66;71.45;100586.63;4982875;28;20105;-85
2022/05/31 02:16:25;;;;;;;31.70;18.35;;;;;;;20.66;71.41;100593.97;5000359;28;20026;-85
2022/05/31 02:21:37;;;;;;;40.22;20.02;;;;;;;20.73;71.07;100603.97;4999001;28;20032;-84
2022/05/31 02:24:06;;;;;;;33.80;19.52;;;;;;;20.58;71.36;100617.63;4998552;28;20022;-83
2022/05/31 02:26:31;;;;;;;31.67;18.13;;;;;;;20.45;71.92;100595.59;4997460;28;20455;-84
2022/05/31 02:28:57;;;;;;;28.25;16.35;;;;;;;20.49;72.14;100606.97;4996686;28;20062;-84
2022/05/31 02:31:23;;;;;;;30.38;19.70;;;;;;;20.49;72.27;100612.44;4979337;28;20026;-84
2022/05/31 02:33:49;;;;;;;26.58;17.60;;;;;;;20.49;72.51;100616.03;4997372;28;20065;-84
2022/05/31 02:36:14;;;;;;;24.60;16.85;;;;;;;20.51;72.31;100613.97;4997164;28;20027;-84
2022/05/31 02:38:40;;;;;;;30.25;17.13;;;;;;;20.49;72.24;100606.97;4997172;28;20022;-84
2022/05/31 02:41:06;;;;;;;28.10;19.35;;;;;;;20.53;72.33;100617.34;4997750;28;20030;-84
2022/05/31 02:43:32;;;;;;;26.65;17.33;;;;;;;20.48;72.31;100627.16;4999977;28;20077;-82
2022/05/31 02:46:03;;;;;;;42.15;20.75;;;;;;;20.38;72.67;100605.59;5013541;28;20053;-83
2022/05/31 02:48:29;;;;;;;39.97;21.77;;;;;;;20.40;72.67;100608.09;5014056;28;20036;-83
2022/05/31 02:50:54;;;;;;;35.42;21.95;;;;;;;20.42;72.73;100620.56;5013519;28;20026;-83
2022/05/31 02:53:20;;;;;;;28.10;20.10;;;;;;;20.36;72.97;100624.06;4994560;28;20049;-84
2022/05/31 02:55:45;;;;;;;31.50;18.95;;;;;;;20.41;72.70;100626.22;5009157;28;20029;-84
2022/05/31 02:58:11;;;;;;;31.58;19.38;;;;;;;20.43;72.58;100622.25;5010936;28;20023;-84
2022/05/31 03:00:36;;;;;;;31.88;17.75;;;;;;;20.48;72.48;100624.44;5009922;28;20089;-83
2022/05/31 03:03:01;;;;;;;24.63;16.80;;;;;;;20.50;72.06;100625.94;5004426;28;20082;-84
2022/05/31 03:05:27;;;;;;;21.83;15.70;;;;;;;20.49;71.98;100623.38;5000652;28;20049;-83
2022/05/31 03:07:52;;;;;;;46.80;18.17;;;;;;;20.49;72.06;100626.09;4980655;28;20034;-83
2022/05/31 03:10:18;;;;;;;38.42;15.85;;;;;;;20.42;71.86;100619.72;4997823;28;20057;-84
2022/05/31 03:12:44;;;;;;;20.20;15.68;;;;;;;20.51;72.15;100630.38;4998105;28;20030;-84
2022/05/31 03:15:16;;;;;;;26.67;16.17;;;;;;;20.38;71.82;100621.97;4979147;28;20396;-84
2022/05/31 03:17:50;;;;;;;27.58;15.38;;;;;;;20.43;72.12;100635.91;4997839;28;20044;-84
2022/05/31 03:20:28;;;;;;;28.27;14.93;;;;;;;20.45;72.34;100639.31;4997598;28;20022;-84
2022/05/31 03:23:14;;;;;;;29.40;14.90;;;;;;;20.47;72.21;100634.50;4997823;28;20026;-84
2022/05/31 03:25:42;;;;;;;24.15;14.45;;;;;;;20.46;72.22;100646.47;4999011;28;20023;-85
2022/05/31 03:28:09;;;;;;;23.33;14.55;;;;;;;20.41;72.50;100635.25;4998005;28;20030;-82
2022/05/31 03:30:36;;;;;;;23.73;13.27;;;;;;;20.36;72.57;100634.97;4998007;28;20057;-85
2022/05/31 03:33:04;;;;;;;21.42;13.00;;;;;;;20.26;72.79;100634.41;4987575;28;20152;-83
2022/05/31 03:35:29;;;;;;;38.03;13.32;;;;;;;20.28;73.28;100637.78;4999645;28;20547;-85
2022/05/31 03:37:55;;;;;;;20.45;12.98;;;;;;;20.21;73.49;100627.78;5002572;28;20026;-84
2022/05/31 03:43:05;;;;;;;20.45;11.10;;;;;;;20.27;73.71;100641.56;4997608;28;20036;-85
2022/05/31 03:45:39;;;;;;;19.85;12.15;;;;;;;20.30;73.61;100646.66;4979689;28;20026;-85
2022/05/31 03:48:05;;;;;;;35.13;11.90;;;;;;;20.26;73.81;100642.59;4998121;28;20035;-84
2022/05/31 03:50:31;;;;;;;19.75;11.63;;;;;;;20.32;73.90;100643.72;4997665;28;20033;-84
2022/05/31 03:52:57;;;;;;;48.67;13.98;;;;;;;20.35;73.80;100638.75;4995160;28;20026;-81
2022/05/31 03:55:22;;;;;;;67.82;14.13;;;;;;;20.41;73.96;100643.47;4977415;28;20026;-80
2022/05/31 03:57:49;;;;;;;27.10;11.55;;;;;;;20.52;73.83;100655.78;4993987;28;20026;-79
2022/05/31 04:00:16;;;;;;;19.80;10.80;;;;;;;20.57;73.47;100656.09;4976874;28;20076;-80
2022/05/31 04:02:41;;;;;;;22.23;12.30;;;;;;;20.55;73.28;100642.59;4993863;28;20030;-83
2022/05/31 04:05:07;;;;;;;16.13;11.20;;;;;;;20.66;73.28;100649.47;4994036;28;20075;-80
2022/05/31 04:07:34;;;;;;;22.15;12.02;;;;;;;20.78;72.92;100650.69;4994046;28;20408;-82
2022/05/31 04:10:03;;;;;;;24.52;12.80;;;;;;;20.80;72.82;100659.53;4994044;28;20805;-80
2022/05/31 04:12:30;;;;;;;25.25;13.68;;;;;;;20.87;72.44;100659.63;4994110;28;20026;-83
2022/05/31 04:14:56;;;;;;;32.58;15.10;;;;;;;20.86;72.06;100647.00;4993805;28;20026;-81
2022/05/31 04:17:21;;;;;;;27.75;15.80;;;;;;;20.80;72.55;100655.97;4993642;28;20029;-81
2022/05/31 04:19:47;;;;;;;35.15;16.08;;;;;;;20.92;72.22;100659.91;4993869;28;20014;-81
2022/05/31 04:22:12;;;;;;;28.33;15.73;;;;;;;20.96;72.17;100653.03;5007602;28;20459;-81
2022/05/31 04:24:37;;;;;;;55.63;19.33;;;;;;;21.03;71.97;100657.56;5013315;28;20022;-80
2022/05/31 04:27:03;;;;;;;37.20;18.52;;;;;;;20.94;71.47;100634.09;5013832;28;20017;-84
2022/05/31 04:29:29;;;;;;;34.65;18.50;;;;;;;21.02;71.39;100633.13;5014040;28;20113;-84
2022/05/31 04:31:54;;;;;;;46.95;17.65;;;;;;;21.10;71.39;100642.06;5013729;28;20092;-84
2022/05/31 04:34:19;;;;;;;78.57;21.85;;;;;;;21.14;71.42;100648.88;5013568;28;20046;-83
2022/05/31 04:36:45;;;;;;;40.45;17.60;;;;;;;21.14;71.43;100642.53;5014248;28;20034;-83
2022/05/31 04:39:10;;;;;;;43.83;17.90;;;;;;;21.26;71.30;100651.94;5014107;28;20018;-83
2022/05/31 04:41:36;;;;;;;45.10;19.20;;;;;;;21.24;71.26;100655.91;5014199;28;20053;-83
2022/05/31 04:44:06;;;;;;;38.40;17.17;;;;;;;21.28;71.07;100649.03;5014161;28;20045;-82
2022/05/31 04:46:34;;;;;;;31.85;15.15;;;;;;;21.37;70.72;100651.44;5014158;28;20022;-85
2022/05/31 04:49:02;;;;;;;51.08;17.65;;;;;;;21.47;70.73;100649.22;5013764;28;20106;-83
2022/05/31 04:51:29;;;;;;;48.45;16.52;;;;;;;21.49;70.34;100638.09;4996235;28;20014;-84
2022/05/31 04:53:54;;;;;;;23.90;15.68;;;;;;;21.52;70.41;100657.72;5014097;28;20018;-84
2022/05/31 04:56:20;;;;;;;36.83;18.95;;;;;;;21.55;70.30;100654.59;4996834;28;20105;-82
2022/05/31 04:58:47;;;;;;;50.30;19.25;;;;;;;21.68;70.27;100665.66;5014026;28;20037;-83
2022/05/31 05:01:13;;;;;;;34.47;20.83;;;;;;;21.73;70.31;100666.97;5014161;28;20026;-83
2022/05/31 05:03:41;;;;;;;45.75;22.67;;;;;;;21.75;70.04;100670.34;4995780;28;20126;-84
2022/05/31 05:06:09;;;;;;;43.00;23.17;;;;;;;21.74;70.05;100672.25;5013827;28;20109;-83
2022/05/31 05:08:36;;;;;;;38.17;21.70;;;;;;;21.81;69.74;100677.75;5013448;28;20045;-84
2022/05/31 05:11:04;;;;;;;58.42;26.83;;;;;;;21.87;69.75;100675.09;5013404;28;20033;-85
2022/05/31 05:13:30;;;;;;;43.88;24.98;;;;;;;21.82;69.85;100665.78;4997646;28;20037;-85
2022/05/31 05:15:57;;;;;;;62.47;28.75;;;;;;;21.90;69.43;100663.78;5017504;28;20060;-85
2022/05/31 05:18:23;;;;;;;52.60;29.30;;;;;;;21.98;69.17;100660.06;5017127;28;20018;-85
2022/05/31 05:20:49;;;;;;;44.90;31.88;;;;;;;22.11;68.79;100677.44;5016885;28;20475;-86
2022/05/31 05:23:14;;;;;;;56.10;33.00;;;;;;;22.08;68.99;100671.50;5016692;28;20029;-85
2022/05/31 05:25:40;;;;;;;50.08;31.80;;;;;;;22.21;68.89;100679.84;5016753;28;20483;-85
2022/05/31 05:30:51;;;;;;;54.40;29.67;;;;;;;22.45;68.40;100689.50;5015983;28;20419;-86
2022/05/31 05:33:17;;;;;;;63.40;29.95;;;;;;;22.54;68.28;100694.63;5016246;28;20120;-86
2022/05/31 05:35:43;;;;;;;58.67;31.15;;;;;;;22.55;68.56;100685.38;5016924;28;20452;-86
2022/05/31 05:38:09;;;;;;;55.45;33.80;;;;;;;22.54;68.65;100686.41;5017331;28;20117;-86
2022/05/31 05:40:35;;;;;;;64.30;31.50;;;;;;;22.48;68.64;100651.56;5017150;28;20117;-85
2022/05/31 05:43:01;;;;;;;49.28;28.70;;;;;;;22.77;68.36;100678.78;5016560;28;20034;-85
2022/05/31 05:45:27;;;;;;;55.80;27.85;;;;;;;22.93;67.78;100685.84;4998913;28;20030;-83
2022/05/31 05:47:52;;;;;;;72.07;29.92;;;;;;;23.06;66.97;100693.25;5017056;28;20080;-83
2022/05/31 05:50:18;;;;;;;50.03;27.10;;;;;;;23.07;67.02;100684.84;5015738;28;20117;-84
2022/05/31 05:52:49;;;;;;;63.40;32.78;;;;;;;23.17;66.84;100684.47;5015871;28;20029;-84
2022/05/31 05:55:15;;;;;;;65.78;31.13;;;;;;;23.22;66.57;100670.97;5016121;28;20080;-84
2022/05/31 05:57:41;;;;;;;53.47;29.05;;;;;;;23.33;66.27;100689.59;5016305;28;20393;-84
2022/05/31 06:00:07;;;;;;;48.53;28.95;;;;;;;23.33;66.15;100684.94;5016238;28;20032;-84
2022/05/31 06:02:35;;;;;;;57.65;28.80;;;;;;;23.41;66.34;100681.19;5015691;28;20389;-84
2022/05/31 06:05:14;;;;;;;45.25;26.70;;;;;;;23.56;66.04;100690.09;5015962;28;20033;-85
2022/05/31 06:07:42;;;;;;;56.55;26.08;;;;;;;23.60;66.05;100688.66;4998167;28;20050;-85
2022/05/31 06:10:19;;;;;;;55.03;26.92;;;;;;;23.70;65.65;100689.06;5015864;28;20109;-84
2022/05/31 06:12:51;;;;;;;49.40;26.95;;;;;;;23.64;65.93;100683.56;4998486;28;20033;-84
2022/05/31 06:15:31;;;;;;;44.17;26.15;;;;;;;23.78;65.39;100699.88;4998250;28;20407;-84
2022/05/31 06:18:01;;;;;;;48.83;25.23;;;;;;;23.81;65.34;100679.38;5015354;28;20022;-85
2022/05/31 06:20:29;;;;;;;48.45;23.33;;;;;;;23.94;65.50;100697.78;5015510;28;20018;-84
2022/05/31 06:22:56;;;;;;;40.95;21.90;;;;;;;23.97;65.30;100686.38;5015837;28;20025;-84
2022/05/31 06:25:21;;;;;;;40.08;22.83;;;;;;;24.05;65.21;100694.41;4997799;28;20511;-84
2022/05/31 06:27:48;;;;;;;34.53;21.35;;;;;;;24.11;65.08;100694.44;4997880;28;20030;-85
2022/05/31 06:30:13;;;;;;;52.50;21.17;;;;;;;24.09;65.39;100676.44;5015280;28;20123;-85
2022/05/31 06:32:39;;;;;;;37.22;22.42;;;;;;;24.18;64.82;100686.19;5014804;28;20575;-85
2022/05/31 06:35:06;;;;;;;30.88;21.60;;;;;;;24.30;64.90;100692.75;5015555;28;20029;-85
2022/05/31 06:37:32;;;;;;;39.20;22.27;;;;;;;24.42;64.99;100690.19;4997267;28;20077;-85
2022/05/31 06:39:57;;;;;;;39.88;23.15;;;;;;;24.46;64.65;100686.81;5015398;28;20022;-86
2022/05/31 06:42:23;;;;;;;39.42;22.48;;;;;;;24.50;64.33;100681.72;5015292;28;20026;-85
2022/05/31 06:44:49;;;;;;;39.10;22.42;;;;;;;24.61;64.27;100687.44;5015167;28;20108;-84
2022/05/31 06:47:14;;;;;;;34.05;21.30;;;;;;;24.65;63.76;100691.41;5014897;28;20034;-84
2022/05/31 06:49:41;;;;;;;50.67;23.38;;;;;;;24.70;63.82;100677.88;4997365;28;20029;-83
2022/05/31 06:57:40;;;;;;;35.28;19.52;;;;;;;25.03;62.52;100683.31;5015578;28;20041;-84
2022/05/31 07:00:09;;;;;;;37.70;19.77;;;;;;;25.02;62.22;100670.59;5014759;28;20041;-83
2022/05/31 07:02:35;;;;;;;35.33;18.40;;;;;;;25.16;61.75;100682.41;5015029;28;20033;-84
2022/05/31 07:05:01;;;;;;;52.72;20.60;;;;;;;25.16;61.86;100677.75;5015038;28;20087;-83
2022/05/31 07:07:26;;;;;;;44.72;16.67;;;;;;;25.28;61.24;100669.66;5014932;28;20502;-84
2022/05/31 07:09:52;;;;;;;42.78;16.92;;;;;;;25.26;61.45;100666.25;5015000;28;20018;-82
2022/05/31 07:12:18;;;;;;;30.88;13.48;;;;;;;25.42;61.31;100671.25;5015892;28;20030;-84
2022/05/31 07:14:44;;;;;;;22.85;12.63;;;;;;;25.42;61.22;100674.00;5014818;28;20032;-83
2022/05/31 07:17:09;;;;;;;28.10;12.15;;;;;;;25.51;60.84;100669.97;5014523;28;20153;-83
2022/05/31 07:19:35;;;;;;;27.35;9.82;;;;;;;25.64;60.33;100680.06;5014150;28;20025;-83
2022/05/31 07:22:01;;;;;;;15.10;9.23;;;;;;;25.65;60.30;100671.59;4996394;28;20360;-84
2022/05/31 07:24:29;;;;;;;21.42;8.18;;;;;;;25.75;60.13;100665.56;5014586;28;20472;-84
2022/05/31 07:26:54;;;;;;;15.75;7.80;;;;;;;25.92;59.38;100673.09;5014350;28;20104;-84
2022/05/31 07:29:20;;;;;;;15.52;8.02;;;;;;;26.03;58.85;100674.25;5014271;28;20560;-84
2022/05/31 07:31:45;;;;;;;25.02;7.60;;;;;;;26.18;58.25;100671.19;5014821;28;20497;-84
2022/05/31 07:34:12;;;;;;;57.92;12.90;;;;;;;26.21;57.64;100673.50;5014222;28;20053;-83
2022/05/31 07:36:41;;;;;;;10.77;6.45;;;;;;;26.33;57.28;100680.81;5013618;28;20065;-85
2022/05/31 07:39:13;;;;;;;10.50;5.47;;;;;;;26.40;56.26;100680.75;4996084;28;20104;-84
2022/05/31 07:41:39;;;;;;;12.45;6.60;;;;;;;26.48;56.30;100678.53;5014005;28;20030;-84
2022/05/31 07:44:05;;;;;;;15.77;7.00;;;;;;;26.48;55.73;100659.22;5013753;28;20029;-84
2022/05/31 07:46:30;;;;;;;15.25;6.85;;;;;;;26.63;56.02;100667.16;5013598;28;20030;-84
2022/05/31 07:48:57;;;;;;;22.85;7.07;;;;;;;26.74;55.97;100662.78;4996204;28;20514;-84
2022/05/31 07:51:23;;;;;;;15.45;7.45;;;;;;;26.88;55.96;100661.63;5014194;28;20033;-84
2022/05/31 07:53:49;;;;;;;22.63;7.20;;;;;;;26.99;54.19;100658.91;5013661;28;20515;-83
2022/05/31 07:56:14;;;;;;;16.05;6.90;;;;;;;27.22;53.66;100663.72;5013332;28;20021;-84
2022/05/31 07:58:44;;;;;;;12.50;6.00;;;;;;;27.13;52.53;100655.97;5013314;28;20554;-84
2022/05/31 08:01:13;;;;;;;14.57;5.82;;;;;;;27.40;51.93;100651.81;5013317;28;20034;-83
2022/05/31 08:03:39;;;;;;;19.52;7.20;;;;;;;27.51;52.28;100656.56;5013279;28;20049;-83
2022/05/31 08:06:10;;;;;;;15.27;5.63;;;;;;;27.57;51.98;100655.59;5013557;28;20034;-83
2022/05/31 08:08:37;;;;;;;9.88;5.43;;;;;;;27.66;51.97;100658.88;5013443;28;20033;-84
2022/05/31 08:11:12;;;;;;;16.20;6.05;;;;;;;27.55;51.46;100660.53;5013502;28;20030;-83
2022/05/31 08:13:38;;;;;;;8.57;4.43;;;;;;;27.45;50.70;100649.19;5015244;28;20052;-84
2022/05/31 08:16:06;;;;;;;20.27;5.43;;;;;;;27.46;50.84;100662.75;5014173;28;20036;-83
2022/05/31 08:18:33;;;;;;;20.52;6.05;;;;;;;27.47;50.54;100660.84;5013847;28;20022;-82
2022/05/31 08:21:05;;;;;;;10.15;5.65;;;;;;;27.47;50.40;100661.69;5014259;28;20033;-84
2022/05/31 08:23:30;;;;;;;12.93;4.77;;;;;;;27.57;50.97;100661.13;5013551;28;20030;-84
2022/05/31 08:25:56;;;;;;;14.25;4.53;;;;;;;27.52;50.44;100663.78;5014461;28;20112;-85
2022/05/31 08:28:23;;;;;;;11.05;5.30;;;;;;;27.70;50.43;100665.63;5013830;28;21976;-83
2022/05/31 08:30:52;;;;;;;7.85;5.20;;;;;;;27.77;50.85;100647.84;4996265;28;20038;-83
2022/05/31 08:33:17;;;;;;;11.50;5.82;;;;;;;27.91;50.59;100651.25;4996465;28;20061;-84
2022/05/31 08:35:43;;;;;;;16.35;5.15;;;;;;;28.00;49.92;100645.16;5014261;28;20026;-84
2022/05/31 08:38:08;;;;;;;17.42;6.15;;;;;;;28.17;49.71;100652.75;5013947;28;20032;-83
2022/05/31 08:40:47;;;;;;;17.38;5.35;;;;;;;28.32;49.01;100644.81;4996024;28;20028;-83
2022/05/31 08:43:18;;;;;;;16.13;5.95;;;;;;;28.30;48.47;100635.94;5013847;28;20080;-84
2022/05/31 08:45:57;;;;;;;9.35;5.50;;;;;;;28.44;48.61;100667.81;5014694;28;20052;-84
2022/05/31 08:49:06;;;;;;;19.17;5.03;;;;;;;28.37;47.47;100653.25;5018531;28;20419;-84
2022/05/31 08:52:04;;;;;;;7.72;3.97;;;;;;;28.52;48.44;100653.63;5014844;28;20042;-84
2022/05/31 08:58:01;;;;;;;9.70;4.78;;;;;;;28.48;48.07;100649.63;4983434;28;20111;-84
2022/05/31 09:00:33;;;;;;;4.83;3.90;;;;;;;28.47;47.02;100632.19;5000076;28;20396;-85
2022/05/31 09:03:30;;;;;;;20.67;5.20;;;;;;;28.74;46.61;100640.88;5018535;28;20029;-84
2022/05/31 09:06:07;;;;;;;15.82;4.15;;;;;;;28.92;46.10;100643.47;5013463;28;20073;-84
2022/05/31 09:08:32;;;;;;;7.57;4.10;;;;;;;29.03;46.30;100650.91;5017971;28;20030;-84
2022/05/31 09:11:06;;;;;;;8.52;4.13;;;;;;;29.12;45.12;100643.91;5017702;28;20083;-84
2022/05/31 09:13:41;;;;;;;7.05;4.30;;;;;;;29.16;45.32;100644.25;5017566;28;20030;-84
2022/05/31 09:16:28;;;;;;;6.55;3.97;;;;;;;29.20;45.29;100653.75;5017802;28;20037;-84
2022/05/31 09:18:58;;;;;;;9.18;3.92;;;;;;;29.23;44.62;100644.97;5018150;28;20033;-85
2022/05/31 09:21:30;;;;;;;10.65;4.13;;;;;;;29.24;44.93;100643.88;5018059;28;20026;-84
2022/05/31 09:23:55;;;;;;;15.90;3.75;;;;;;;29.35;45.05;100643.00;5017333;28;20041;-84
2022/05/31 09:26:40;;;;;;;24.13;5.05;;;;;;;29.48;44.63;100636.34;5017053;28;20385;-84
2022/05/31 09:29:12;;;;;;;7.03;3.70;;;;;;;29.66;44.02;100638.88;4999965;28;20034;-84
2022/05/31 09:32:22;;;;;;;6.72;3.92;;;;;;;29.61;43.85;100639.63;5001548;28;20026;-84
2022/05/31 09:35:12;;;;;;;14.57;5.30;;;;;;;29.62;44.58;100638.53;4988617;28;20050;-84
2022/05/31 09:37:47;;;;;;;8.48;3.97;;;;;;;29.78;44.78;100636.88;4999483;28;20044;-87
2022/05/31 09:40:24;;;;;;;5.72;3.47;;;;;;;29.92;43.81;100635.50;5016663;28;20068;-85
2022/05/31 09:42:59;;;;;;;13.23;3.83;;;;;;;29.86;43.01;100633.72;5017510;28;20053;-84
2022/05/31 09:45:26;;;;;;;5.40;3.45;;;;;;;29.98;41.97;100637.25;5016596;28;20018;-83
2022/05/31 09:47:52;;;;;;;11.73;4.13;;;;;;;29.92;42.72;100635.50;5016822;28;20085;-84
2022/05/31 09:50:27;;;;;;;14.95;4.25;;;;;;;30.04;42.54;100616.81;5016190;28;20029;-85
2022/05/31 09:52:58;;;;;;;11.68;4.13;;;;;;;30.27;43.91;100628.84;5016319;28;20024;-85
2022/05/31 09:58:32;;;;;;;23.83;5.60;;;;;;;29.95;46.40;100643.31;5016842;28;20044;-84
2022/05/31 10:01:02;;;;;;;8.18;4.43;;;;;;;29.71;47.25;100636.19;5015965;28;20542;-83
2022/05/31 10:03:35;;;;;;;17.80;5.13;;;;;;;29.64;47.16;100643.81;5002219;28;20022;-83
2022/05/31 10:06:29;;;;;;;18.17;5.82;;;;;;;29.46;47.66;100639.34;5000111;28;20068;-83
2022/05/31 10:08:56;;;;;;;21.35;6.63;;;;;;;29.26;49.40;100650.03;5017449;28;20022;-82
2022/05/31 10:11:30;;;;;;;19.98;6.63;;;;;;;29.14;48.81;100641.72;5016787;28;20085;-83
2022/05/31 10:14:04;;;;;;;9.82;5.00;;;;;;;29.16;48.33;100645.09;5016536;28;20440;-82
2022/05/31 10:16:35;;;;;;;10.82;5.47;;;;;;;28.99;48.67;100635.03;5016181;28;20109;-83
2022/05/31 10:19:04;;;;;;;21.20;8.75;;;;;;;29.00;48.35;100633.94;4998496;28;20384;-83
2022/05/31 10:21:40;;;;;;;25.92;6.32;;;;;;;29.33;47.56;100633.25;5015529;28;20392;-84
2022/05/31 10:24:08;;;;;;;30.38;5.80;;;;;;;29.34;48.19;100641.31;4998014;28;20057;-84
2022/05/31 10:26:38;;;;;;;10.65;5.13;;;;;;;29.45;48.04;100642.34;5015731;28;20025;-84
2022/05/31 10:29:16;;;;;;;11.73;5.00;;;;;;;29.39;48.23;100630.31;5015578;28;20144;-85
2022/05/31 10:31:45;;;;;;;16.63;5.40;;;;;;;29.24;48.88;100646.66;5016405;28;20022;-83
2022/05/31 10:34:22;;;;;;;12.98;5.47;;;;;;;29.12;48.97;100643.91;5015192;28;20046;-84
2022/05/31 10:36:55;;;;;;;11.52;5.00;;;;;;;29.24;49.54;100640.25;5015543;28;20088;-83
2022/05/31 10:39:24;;;;;;;17.70;6.15;;;;;;;29.03;49.48;100631.53;5016676;28;20037;-83
2022/05/31 10:41:53;;;;;;;13.35;5.22;;;;;;;29.18;50.57;100636.53;5017510;28;20030;-83
2022/05/31 10:44:51;;;;;;;19.60;5.43;;;;;;;29.37;51.43;100628.91;5001048;28;20109;-84
2022/05/31 10:47:20;;;;;;;10.13;6.03;;;;;;;29.30;50.08;100631.81;5015243;28;20044;-84
2022/05/31 10:49:46;;;;;;;15.63;5.15;;;;;;;29.07;50.98;100632.72;5016034;28;20042;-83
2022/05/31 10:53:01;;;;;;;15.80;5.15;;;;;;;28.62;50.67;100637.25;5014900;28;20036;-84
2022/05/31 10:55:51;;;;;;;18.33;6.07;;;;;;;28.45;51.23;100626.06;4973294;28;20136;-84
2022/05/31 10:58:40;;;;;;;18.48;5.85;;;;;;;28.46;51.50;100635.22;5014954;28;20026;-85
2022/05/31 11:01:49;;;;;;;21.85;6.50;;;;;;;28.56;52.73;100635.44;5016607;28;20026;-85
2022/05/31 11:04:23;;;;;;;16.33;5.40;;;;;;;28.61;51.59;100641.09;4998080;28;20029;-83
2022/05/31 11:07:13;;;;;;;17.90;4.82;;;;;;;28.67;51.55;100634.63;5014914;28;20120;-84
2022/05/31 11:13:11;;;;;;;13.70;5.57;;;;;;;28.71;51.22;100635.81;5022678;28;20471;-83
2022/05/31 11:16:18;;;;;;;11.18;4.60;;;;;;;28.67;51.17;100633.78;5024921;28;20032;-83
2022/05/31 11:18:50;;;;;;;20.88;6.00;;;;;;;28.70;52.12;100631.38;4999150;28;20058;-85
2022/05/31 11:21:21;;;;;;;34.20;6.50;;;;;;;28.78;52.41;100625.44;5014798;28;20137;-84
2022/05/31 11:24:12;;;;;;;22.10;5.93;;;;;;;28.99;52.73;100633.09;5012971;28;20089;-83
2022/05/31 11:26:58;;;;;;;13.52;5.90;;;;;;;29.17;52.48;100627.38;5023564;28;20498;-84
2022/05/31 11:29:29;;;;;;;9.40;5.45;;;;;;;29.14;53.06;100625.09;5026547;28;20407;-85
2022/05/31 11:32:09;;;;;;;11.70;6.20;;;;;;;29.30;53.15;100619.88;4996571;28;20034;-84
2022/05/31 11:34:53;;;;;;;13.50;5.43;;;;;;;29.30;53.07;100617.97;5014594;28;20141;-83
2022/05/31 11:37:18;;;;;;;44.00;8.52;;;;;;;29.36;52.58;100616.97;5015039;28;20030;-85
2022/05/31 11:40:07;;;;;;;22.73;6.78;;;;;;;29.53;52.29;100615.09;5014481;28;20029;-85
2022/05/31 11:42:41;;;;;;;12.93;5.35;;;;;;;29.65;51.46;100615.03;5015179;28;20034;-85
2022/05/31 11:45:28;;;;;;;9.68;5.60;;;;;;;29.57;51.35;100602.38;5014743;28;20057;-83
2022/05/31 11:48:00;;;;;;;16.00;6.47;;;;;;;29.61;50.30;100602.72;5014686;28;20034;-83
2022/05/31 11:50:49;;;;;;;16.00;6.25;;;;;;;29.53;49.58;100605.94;4997068;28;20072;-84
2022/05/31 11:53:53;;;;;;;11.23;5.95;;;;;;;29.52;48.90;100601.47;5014465;28;20065;-83